Schneifelwetter: Wetterstation Hallschlag, 537 m . NN
Wetterdaten: Montag, 30.04.2007
Datum Zeit Temp. A. Temp. 2 Feuchte A. Luftdruck Regen Wind Richtung Richtung Sonnenschein Helligkeit T Regen Taupunkt Windchill
30.04.2007 00:09 11,2 C 9,0 C 61 % 1014 hPa 0,0 l/m 2,4 km/h (1 Bft) N22.5 10 0 min 0 lux 0,00 min 4,0 C 11,2 C
30.04.2007 00:24 11,2 C 9,1 C 60 % 1014 hPa 0,0 l/m 17,1 km/h (3 Bft) O45 90 0 min 0 lux 0,00 min 3,7 C 5,8 C
30.04.2007 00:39 11,2 C 9,1 C 59 % 1014 hPa 0,0 l/m 13,3 km/h (3 Bft) O-NO45 70 0 min 0 lux 0,00 min 3,5 C 7,3 C
30.04.2007 00:54 10,9 C 8,5 C 60 % 1014 hPa 0,0 l/m 11,2 km/h (2 Bft) NO45 55 0 min 0 lux 0,00 min 3,4 C 7,9 C
30.04.2007 01:09 10,2 C 7,7 C 62 % 1015 hPa 0,0 l/m 5,3 km/h (1 Bft) N-NO22.5 20 0 min 0 lux 0,00 min 3,3 C 10,2 C
30.04.2007 01:24 9,8 C 7,5 C 63 % 1015 hPa 0,0 l/m 4,1 km/h (1 Bft) N22.5 10 0 min 0 lux 0,00 min 3,1 C 9,8 C
30.04.2007 01:39 9,6 C 7,1 C 63 % 1014 hPa 0,0 l/m 5,3 km/h (1 Bft) N22.5 5 0 min 0 lux 0,00 min 2,9 C 9,6 C
30.04.2007 01:54 9,4 C 6,8 C 64 % 1014 hPa 0,0 l/m 9,0 km/h (2 Bft) NO22.5 35 0 min 0 lux 0,00 min 2,9 C 7,6 C
30.04.2007 02:09 9,3 C 6,5 C 62 % 1015 hPa 0,0 l/m 11,6 km/h (2 Bft) N-NO22.5 30 0 min 0 lux 0,00 min 2,4 C 5,9 C
30.04.2007 02:24 9,0 C 6,1 C 62 % 1014 hPa 0,0 l/m 7,1 km/h (2 Bft) N-NO22.5 30 0 min 0 lux 0,00 min 2,1 C 8,5 C
30.04.2007 02:39 8,8 C 5,7 C 62 % 1014 hPa 0,0 l/m 8,1 km/h (2 Bft) NO22.5 45 0 min 0 lux 0,00 min 1,9 C 7,5 C
30.04.2007 02:54 8,6 C 5,6 C 64 % 1014 hPa 0,0 l/m 11,5 km/h (2 Bft) NO22.5 45 0 min 0 lux 0,00 min 2,2 C 5,2 C
30.04.2007 03:09 8,3 C 5,3 C 63 % 1014 hPa 0,0 l/m 10,7 km/h (2 Bft) NO22.5 45 0 min 0 lux 0,00 min 1,7 C 5,3 C
30.04.2007 03:24 7,9 C 5,1 C 63 % 1014 hPa 0,0 l/m 8,0 km/h (2 Bft) NO22.5 50 0 min 0 lux 0,00 min 1,3 C 6,6 C
30.04.2007 03:39 7,6 C 4,8 C 63 % 1014 hPa 0,0 l/m 9,6 km/h (2 Bft) N-NO22.5 25 0 min 0 lux 0,00 min 1,0 C 5,2 C
30.04.2007 03:55 7,4 C 4,4 C 64 % 1014 hPa 0,0 l/m 11,4 km/h (2 Bft) N-NO22.5 30 0 min 0 lux 0,00 min 1,0 C 3,9 C
30.04.2007 04:10 7,1 C 4,0 C 64 % 1014 hPa 0,0 l/m 12,5 km/h (3 Bft) NO45 50 0 min 0 lux 0,00 min 0,8 C 2,9 C
30.04.2007 04:25 6,7 C 3,5 C 64 % 1014 hPa 0,0 l/m 8,0 km/h (2 Bft) NO22.5 45 0 min 0 lux 0,00 min 0,4 C 5,4 C
30.04.2007 04:40 6,4 C 3,5 C 64 % 1014 hPa 0,0 l/m 9,8 km/h (2 Bft) N45 5 0 min 0 lux 0,00 min 0,1 C 3,8 C
30.04.2007 04:55 6,1 C 3,1 C 64 % 1014 hPa 0,0 l/m 6,8 km/h (2 Bft) NO67.5 50 0 min 0 lux 0,00 min -0,2 C 5,8 C
30.04.2007 05:10 6,1 C 3,2 C 64 % 1014 hPa 0,0 l/m 10,0 km/h (2 Bft) NO45 35 0 min 0 lux 0,00 min -0,2 C 3,3 C
30.04.2007 05:25 6,0 C 3,1 C 64 % 1014 hPa 0,0 l/m 10,1 km/h (2 Bft) N-NO22.5 25 0 min 0 lux 0,00 min -0,3 C 3,1 C
30.04.2007 05:40 5,8 C 3,1 C 64 % 1014 hPa 0,0 l/m 8,8 km/h (2 Bft) N22.5 350 0 min 0 lux 0,00 min -0,5 C 3,8 C
30.04.2007 05:55 5,8 C 3,1 C 64 % 1013 hPa 0,0 l/m 11,2 km/h (2 Bft) N-NO45 25 0 min 105 lux 0,00 min -0,5 C 2,2 C
30.04.2007 06:10 5,7 C 3,0 C 64 % 1013 hPa 0,0 l/m 8,9 km/h (2 Bft) N45 10 0 min 606 lux 0,00 min -0,6 C 3,6 C
30.04.2007 06:25 5,8 C 3,2 C 64 % 1013 hPa 0,0 l/m 9,8 km/h (2 Bft) N-NO67.5 30 0 min 1,82 klux 0,00 min -0,5 C 3,1 C
30.04.2007 06:40 6,1 C 3,3 C 63 % 1013 hPa 0,0 l/m 13,1 km/h (3 Bft) NO45 45 0 min 3,13 klux 0,00 min -0,4 C 1,4 C
30.04.2007 06:55 6,4 C 3,6 C 62 % 1013 hPa 0,0 l/m 13,1 km/h (3 Bft) NO22.5 40 0 min 4,15 klux 0,00 min -0,3 C 1,7 C
30.04.2007 07:10 6,7 C 3,8 C 62 % 1013 hPa 0,0 l/m 16,0 km/h (3 Bft) NO22.5 35 0 min 4,50 klux 0,00 min -0,1 C 0,7 C
30.04.2007 07:25 7,6 C 6,2 C 60 % 1014 hPa 0,0 l/m 12,9 km/h (3 Bft) NO22.5 40 0 min 4,99 klux 0,00 min 0,3 C 3,3 C
30.04.2007 07:40 8,0 C 7,1 C 59 % 1014 hPa 0,0 l/m 16,0 km/h (3 Bft) N-NO45 30 0 min 5,23 klux 0,00 min 0,5 C 2,3 C
30.04.2007 08:00 8,8 C 8,7 C 58 % 1013 hPa 0,0 l/m 14,7 km/h (3 Bft) N-NO67.5 25 0 min 5,84 klux 0,00 min 1,0 C 3,8 C
30.04.2007 08:15 9,6 C 10,4 C 57 % 1013 hPa 0,0 l/m 15,4 km/h (3 Bft) N-NO22.5 30 0 min 22,6 klux 0,00 min 1,5 C 4,5 C
30.04.2007 08:31 10,3 C 11,7 C 56 % 1013 hPa 0,0 l/m 16,6 km/h (3 Bft) NO22.5 45 0 min 23,9 klux 0,00 min 1,9 C 4,9 C
30.04.2007 08:46 10,9 C 12,5 C 54 % 1013 hPa 0,0 l/m 19,4 km/h (3 Bft) O-NO22.5 70 0 min 7,28 klux 0,00 min 2,0 C 4,6 C
30.04.2007 09:01 11,6 C 12,8 C 53 % 1013 hPa 0,0 l/m 21,2 km/h (4 Bft) O-NO45 65 0 min 46,3 klux 0,00 min 2,4 C 5,0 C
30.04.2007 09:15 12,0 C 13,1 C 51 % 1013 hPa 0,0 l/m 19,7 km/h (3 Bft) O-NO45 70 14 min 57,1 klux 0,00 min 2,2 C 6,0 C
30.04.2007 09:30 12,8 C 13,3 C 49 % 1014 hPa 0,0 l/m 24,4 km/h (4 Bft) O-NO45 70 15 min 61,5 klux 0,00 min 2,4 C 5,8 C
30.04.2007 09:46 13,2 C 13,5 C 49 % 1014 hPa 0,0 l/m 23,3 km/h (4 Bft) O-NO45 70 16 min 66,4 klux 0,00 min 2,7 C 6,6 C
30.04.2007 10:01 13,6 C 13,8 C 49 % 1014 hPa 0,0 l/m 22,3 km/h (4 Bft) O-NO45 70 15 min 70,3 klux 0,00 min 3,1 C 7,3 C
30.04.2007 10:16 14,0 C 14,0 C 45 % 1014 hPa 0,0 l/m 30,4 km/h (5 Bft) NO22.5 55 15 min 73,8 klux 0,00 min 2,3 C 6,2 C
30.04.2007 10:31 14,3 C 14,5 C 45 % 1014 hPa 0,0 l/m 32,2 km/h (5 Bft) O-NO45 65 15 min 77,6 klux 0,00 min 2,5 C 6,3 C
30.04.2007 10:45 14,6 C 14,7 C 45 % 1014 hPa 0,0 l/m 31,8 km/h (5 Bft) O-NO22.5 65 14 min 81,2 klux 0,00 min 2,8 C 6,8 C
30.04.2007 11:00 15,4 C 15,5 C 42 % 1014 hPa 0,0 l/m 33,7 km/h (5 Bft) O-NO22.5 65 15 min 84,8 klux 0,00 min 2,6 C 7,7 C
30.04.2007 11:16 15,6 C 16,0 C 42 % 1014 hPa 0,0 l/m 35,6 km/h (5 Bft) O-NO22.5 70 16 min 87,2 klux 0,00 min 2,7 C 7,7 C
30.04.2007 11:31 15,4 C 16,4 C 42 % 1014 hPa 0,0 l/m 34,5 km/h (5 Bft) O45 80 15 min 89,8 klux 0,00 min 2,6 C 7,6 C
30.04.2007 11:46 15,4 C 17,1 C 42 % 1014 hPa 0,0 l/m 33,3 km/h (5 Bft) O-NO45 70 15 min 91,5 klux 0,00 min 2,6 C 7,7 C
30.04.2007 12:00 15,4 C 18,0 C 41 % 1014 hPa 0,0 l/m 32,5 km/h (5 Bft) O-NO45 65 14 min 93,4 klux 0,00 min 2,2 C 7,9 C
30.04.2007 12:15 15,5 C 18,5 C 43 % 1013 hPa 0,0 l/m 32,3 km/h (5 Bft) O-NO45 70 15 min 95,4 klux 0,00 min 3,0 C 8,0 C
30.04.2007 12:31 15,9 C 19,9 C 43 % 1013 hPa 0,0 l/m 27,1 km/h (4 Bft) O22.5 80 16 min 96,4 klux 0,00 min 3,3 C 9,4 C
30.04.2007 12:46 16,2 C 21,0 C 41 % 1013 hPa 0,0 l/m 28,6 km/h (4 Bft) O-NO45 70 15 min 97,7 klux 0,00 min 2,9 C 9,6 C
30.04.2007 13:01 16,2 C 22,1 C 41 % 1013 hPa 0,0 l/m 32,2 km/h (5 Bft) O-NO45 70 15 min 98,3 klux 0,00 min 2,9 C 9,0 C
30.04.2007 13:16 16,3 C 22,5 C 41 % 1013 hPa 0,0 l/m 27,0 km/h (4 Bft) O-SO45 105 15 min 99,0 klux 0,00 min 3,0 C 10,0 C
30.04.2007 13:30 16,6 C 23,3 C 41 % 1013 hPa 0,0 l/m 28,5 km/h (4 Bft) O-NO45 65 14 min 98,9 klux 0,00 min 3,3 C 10,2 C
30.04.2007 13:46 16,4 C 23,4 C 41 % 1013 hPa 0,0 l/m 33,5 km/h (5 Bft) O-NO45 65 16 min 98,6 klux 0,00 min 3,1 C 9,2 C
30.04.2007 14:01 16,7 C 23,5 C 41 % 1013 hPa 0,0 l/m 30,5 km/h (5 Bft) O-NO45 70 15 min 97,9 klux 0,00 min 3,4 C 10,0 C
30.04.2007 14:16 16,8 C 23,8 C 39 % 1013 hPa 0,0 l/m 25,7 km/h (4 Bft) O-NO45 75 15 min 96,8 klux 0,00 min 2,8 C 10,9 C
30.04.2007 14:31 16,8 C 24,2 C 39 % 1013 hPa 0,0 l/m 29,3 km/h (5 Bft) O-NO22.5 70 15 min 95,5 klux 0,00 min 2,8 C 10,3 C
30.04.2007 14:45 17,2 C 24,6 C 36 % 1013 hPa 0,0 l/m 31,2 km/h (5 Bft) O-NO45 65 14 min 94,3 klux 0,00 min 2,0 C 10,6 C
30.04.2007 15:00 17,3 C 24,9 C 32 % 1013 hPa 0,0 l/m 31,7 km/h (5 Bft) O-NO67.5 60 15 min 92,1 klux 0,00 min 0,5 C 10,7 C
30.04.2007 15:16 17,4 C 24,9 C 32 % 1013 hPa 0,0 l/m 29,7 km/h (5 Bft) O67.5 100 16 min 89,5 klux 0,00 min 0,5 C 11,1 C
30.04.2007 15:31 17,5 C 25,1 C 30 % 1013 hPa 0,0 l/m 30,1 km/h (5 Bft) O45 90 15 min 87,5 klux 0,00 min -0,3 C 11,2 C
30.04.2007 15:46 17,4 C 25,1 C 30 % 1013 hPa 0,0 l/m 32,2 km/h (5 Bft) O-NO67.5 60 15 min 85,2 klux 0,00 min -0,3 C 10,8 C
30.04.2007 16:00 17,6 C 25,3 C 28 % 1013 hPa 0,0 l/m 25,8 km/h (4 Bft) O-NO45 75 14 min 82,2 klux 0,00 min -1,1 C 12,0 C
30.04.2007 16:15 17,6 C 25,4 C 29 % 1013 hPa 0,0 l/m 30,2 km/h (5 Bft) O-NO45 70 15 min 78,1 klux 0,00 min -0,6 C 11,3 C
30.04.2007 16:31 17,4 C 24,8 C 27 % 1013 hPa 0,0 l/m 29,1 km/h (5 Bft) O45 90 16 min 75,1 klux 0,00 min -1,8 C 11,2 C
30.04.2007 16:46 17,5 C 24,7 C 26 % 1013 hPa 0,0 l/m 30,0 km/h (5 Bft) O-NO45 70 15 min 71,4 klux 0,00 min -2,2 C 11,2 C
30.04.2007 17:01 17,4 C 24,6 C 28 % 1012 hPa 0,0 l/m 29,0 km/h (5 Bft) O67.5 85 15 min 66,9 klux 0,00 min -1,3 C 11,2 C
30.04.2007 17:16 17,5 C 24,8 C 30 % 1013 hPa 0,0 l/m 30,3 km/h (5 Bft) O-NO67.5 70 15 min 63,4 klux 0,00 min -0,3 C 11,2 C
30.04.2007 17:30 17,6 C 25,2 C 30 % 1012 hPa 0,0 l/m 31,7 km/h (5 Bft) O-NO22.5 65 14 min 60,1 klux 0,00 min -0,2 C 11,1 C
30.04.2007 17:45 17,5 C 24,5 C 30 % 1012 hPa 0,0 l/m 31,6 km/h (5 Bft) O45 90 15 min 55,7 klux 0,00 min -0,3 C 11,0 C
30.04.2007 18:01 17,4 C 24,3 C 30 % 1012 hPa 0,0 l/m 31,0 km/h (5 Bft) O45 80 0 min 50,9 klux 0,00 min -0,3 C 10,9 C
30.04.2007 18:16 17,3 C 24,2 C 30 % 1012 hPa 0,0 l/m 29,8 km/h (5 Bft) O-NO45 70 0 min 47,4 klux 0,00 min -0,4 C 11,0 C
30.04.2007 18:31 17,2 C 23,0 C 30 % 1012 hPa 0,0 l/m 25,2 km/h (4 Bft) O-NO67.5 65 0 min 43,3 klux 0,00 min -0,5 C 11,6 C
30.04.2007 18:45 16,9 C 22,6 C 30 % 1012 hPa 0,0 l/m 24,5 km/h (4 Bft) O45 95 0 min 38,8 klux 0,00 min -0,8 C 11,3 C
30.04.2007 19:00 16,6 C 21,8 C 29 % 1012 hPa 0,0 l/m 28,3 km/h (4 Bft) O-NO45 60 0 min 34,4 klux 0,00 min -1,5 C 10,2 C
30.04.2007 19:16 16,6 C 20,4 C 30 % 1012 hPa 0,0 l/m 27,1 km/h (4 Bft) O45 85 0 min 29,7 klux 0,00 min -1,0 C 10,4 C
30.04.2007 19:31 16,5 C 19,2 C 30 % 1012 hPa 0,0 l/m 26,3 km/h (4 Bft) O45 80 0 min 25,4 klux 0,00 min -1,1 C 10,4 C
30.04.2007 19:46 16,2 C 18,9 C 31 % 1012 hPa 0,0 l/m 24,6 km/h (4 Bft) O45 80 0 min 5,02 klux 0,00 min -0,9 C 10,3 C
30.04.2007 20:00 15,3 C 17,0 C 33 % 1012 hPa 0,0 l/m 24,8 km/h (4 Bft) O-NO45 65 0 min 4,38 klux 0,00 min -0,9 C 9,1 C
30.04.2007 20:15 14,5 C 14,4 C 34 % 1012 hPa 0,0 l/m 21,7 km/h (4 Bft) O45 90 0 min 3,67 klux 0,00 min -1,2 C 8,7 C
30.04.2007 20:31 13,7 C 12,7 C 37 % 1012 hPa 0,0 l/m 11,0 km/h (2 Bft) O-NO22.5 70 0 min 2,46 klux 0,00 min -0,7 C 11,2 C
30.04.2007 20:46 13,2 C 11,4 C 38 % 1012 hPa 0,0 l/m 15,3 km/h (3 Bft) O22.5 85 0 min 1,34 klux 0,00 min -0,8 C 8,9 C
30.04.2007 21:01 12,3 C 9,8 C 40 % 1012 hPa 0,0 l/m 11,2 km/h (2 Bft) O22.5 85 0 min 753 lux 0,00 min -0,9 C 9,5 C
30.04.2007 21:16 11,6 C 9,0 C 42 % 1013 hPa 0,0 l/m 9,4 km/h (2 Bft) O-NO22.5 75 0 min 186 lux 0,00 min -0,9 C 9,7 C
30.04.2007 21:30 10,9 C 8,1 C 43 % 1013 hPa 0,0 l/m 11,1 km/h (2 Bft) O45 80 0 min 26 lux 0,00 min -1,2 C 8,0 C
30.04.2007 21:45 10,5 C 7,6 C 44 % 1013 hPa 0,0 l/m 12,3 km/h (3 Bft) O-NO22.5 65 0 min 0 lux 0,00 min -1,2 C 6,9 C
30.04.2007 22:01 10,0 C 7,2 C 44 % 1013 hPa 0,0 l/m 12,2 km/h (2 Bft) O-NO22.5 70 0 min 0 lux 0,00 min -1,7 C 6,4 C
30.04.2007 22:16 9,5 C 6,6 C 45 % 1013 hPa 0,0 l/m 10,6 km/h (2 Bft) O-NO22.5 70 0 min 0 lux 0,00 min -1,8 C 6,7 C
30.04.2007 22:31 9,4 C 6,5 C 45 % 1013 hPa 0,0 l/m 13,2 km/h (3 Bft) O-NO22.5 65 0 min 0 lux 0,00 min -1,9 C 5,2 C
30.04.2007 22:46 9,0 C 6,3 C 47 % 1013 hPa 0,0 l/m 13,3 km/h (3 Bft) O-NO22.5 60 0 min 0 lux 0,00 min -1,7 C 4,7 C
30.04.2007 23:00 8,6 C 6,2 C 47 % 1013 hPa 0,0 l/m 14,3 km/h (3 Bft) O-NO22.5 65 0 min 0 lux 0,00 min -2,1 C 3,8 C
30.04.2007 23:15 8,5 C 6,3 C 48 % 1013 hPa 0,0 l/m 14,9 km/h (3 Bft) O-NO22.5 70 0 min 0 lux 0,00 min -1,9 C 3,4 C
30.04.2007 23:31 8,3 C 5,9 C 49 % 1013 hPa 0,0 l/m 14,0 km/h (3 Bft) O-NO45 75 0 min 0 lux 0,00 min -1,8 C 3,5 C
30.04.2007 23:46 8,4 C 6,1 C 49 % 1013 hPa 0,0 l/m 17,3 km/h (3 Bft) O-NO22.5 70 0 min 0 lux 0,00 min -1,7 C 2,2 C
_ Min-Zeit 06:10 06:10 16:46 17:01 - 00:09 - - - - - 16:46 07:10
Minimum _ 5,7 C 3,0 C 26 % 1012 hPa - 2,4 km/h (1 Bft) - - - - - -2,2 C 0,7 C
_ Max-Zeit 16:00 16:15 01:54 01:09 00:09 11:16 - - 09:46 13:16 00:09 00:09 16:00
Maximum _ 17,6 C 25,4 C 64 % 1015 hPa 0,0 l/m 35,6 km/h
O-NO (5 Bft)
- - 16 min 99,0 klux 0,00 min 4,0 C 12,0 C
Durchschnitt _ 12,3 C 13,3 C 47 % 1013 hPa #0,0 l/m 19,8 km/h (4 Bft) O-NO - #8:44 h 35,0 klux #0 min. 0,8 C 7,4 C